sensor_id;sensor_type;location;lat;lon;timestamp;P1;durP1;ratioP1;P2;durP2;ratioP2
6392;SDS011;3229;42.674;23.282;2022-11-15T00:01:05;47.40;;;29.33;;
6392;SDS011;3229;42.674;23.282;2022-11-15T00:03:33;44.30;;;29.37;;
6392;SDS011;3229;42.674;23.282;2022-11-15T00:06:01;42.97;;;29.00;;
6392;SDS011;3229;42.674;23.282;2022-11-15T00:08:29;45.00;;;28.17;;
6392;SDS011;3229;42.674;23.282;2022-11-15T00:10:56;42.47;;;27.87;;
6392;SDS011;3229;42.674;23.282;2022-11-15T00:13:24;43.73;;;27.73;;
6392;SDS011;3229;42.674;23.282;2022-11-15T00:15:51;41.07;;;27.27;;
6392;SDS011;3229;42.674;23.282;2022-11-15T00:18:20;40.13;;;27.90;;
6392;SDS011;3229;42.674;23.282;2022-11-15T00:20:47;42.73;;;27.90;;
6392;SDS011;3229;42.674;23.282;2022-11-15T00:23:14;43.57;;;27.43;;
6392;SDS011;3229;42.674;23.282;2022-11-15T00:25:41;44.60;;;28.13;;
6392;SDS011;3229;42.674;23.282;2022-11-15T00:28:08;40.83;;;26.63;;
6392;SDS011;3229;42.674;23.282;2022-11-15T00:30:35;40.60;;;26.60;;
6392;SDS011;3229;42.674;23.282;2022-11-15T00:33:02;47.70;;;28.87;;
6392;SDS011;3229;42.674;23.282;2022-11-15T00:35:32;43.27;;;27.87;;
6392;SDS011;3229;42.674;23.282;2022-11-15T00:37:59;43.17;;;27.50;;
6392;SDS011;3229;42.674;23.282;2022-11-15T00:40:26;42.20;;;28.33;;
6392;SDS011;3229;42.674;23.282;2022-11-15T00:42:54;40.00;;;26.33;;
6392;SDS011;3229;42.674;23.282;2022-11-15T00:45:21;40.20;;;26.93;;
6392;SDS011;3229;42.674;23.282;2022-11-15T00:47:48;37.43;;;26.03;;
6392;SDS011;3229;42.674;23.282;2022-11-15T00:50:16;40.47;;;26.33;;
6392;SDS011;3229;42.674;23.282;2022-11-15T00:52:44;42.27;;;26.93;;
6392;SDS011;3229;42.674;23.282;2022-11-15T00:55:12;42.07;;;26.03;;
6392;SDS011;3229;42.674;23.282;2022-11-15T00:57:41;40.13;;;25.27;;
6392;SDS011;3229;42.674;23.282;2022-11-15T01:00:08;37.53;;;25.33;;
6392;SDS011;3229;42.674;23.282;2022-11-15T01:02:35;39.73;;;25.60;;
6392;SDS011;3229;42.674;23.282;2022-11-15T01:05:03;43.77;;;26.20;;
6392;SDS011;3229;42.674;23.282;2022-11-15T01:07:31;39.90;;;26.00;;
6392;SDS011;3229;42.674;23.282;2022-11-15T01:09:59;37.60;;;24.13;;
6392;SDS011;3229;42.674;23.282;2022-11-15T01:12:26;35.93;;;23.33;;
6392;SDS011;3229;42.674;23.282;2022-11-15T01:14:53;36.80;;;24.90;;
6392;SDS011;3229;42.674;23.282;2022-11-15T01:17:21;44.70;;;26.73;;
6392;SDS011;3229;42.674;23.282;2022-11-15T01:19:48;39.63;;;26.00;;
6392;SDS011;3229;42.674;23.282;2022-11-15T01:22:15;40.07;;;25.63;;
6392;SDS011;3229;42.674;23.282;2022-11-15T01:24:45;36.40;;;23.53;;
6392;SDS011;3229;42.674;23.282;2022-11-15T01:27:15;37.70;;;23.40;;
6392;SDS011;3229;42.674;23.282;2022-11-15T01:29:42;36.80;;;24.20;;
6392;SDS011;3229;42.674;23.282;2022-11-15T01:32:09;35.93;;;24.00;;
6392;SDS011;3229;42.674;23.282;2022-11-15T01:34:36;39.27;;;24.30;;
6392;SDS011;3229;42.674;23.282;2022-11-15T01:37:04;35.23;;;23.27;;
6392;SDS011;3229;42.674;23.282;2022-11-15T01:39:33;35.17;;;23.60;;
6392;SDS011;3229;42.674;23.282;2022-11-15T01:42:01;34.27;;;23.53;;
6392;SDS011;3229;42.674;23.282;2022-11-15T01:44:36;39.07;;;22.53;;
6392;SDS011;3229;42.674;23.282;2022-11-15T01:47:06;36.33;;;23.53;;
6392;SDS011;3229;42.674;23.282;2022-11-15T01:49:38;34.80;;;22.13;;
6392;SDS011;3229;42.674;23.282;2022-11-15T01:52:17;33.57;;;22.37;;
6392;SDS011;3229;42.674;23.282;2022-11-15T01:54:46;37.07;;;23.07;;
6392;SDS011;3229;42.674;23.282;2022-11-15T01:57:15;31.63;;;22.80;;
6392;SDS011;3229;42.674;23.282;2022-11-15T01:59:44;33.63;;;22.20;;
6392;SDS011;3229;42.674;23.282;2022-11-15T02:02:13;32.90;;;21.43;;
6392;SDS011;3229;42.674;23.282;2022-11-15T02:04:46;34.47;;;22.37;;
6392;SDS011;3229;42.674;23.282;2022-11-15T02:07:15;30.03;;;20.50;;
6392;SDS011;3229;42.674;23.282;2022-11-15T02:09:43;31.30;;;20.90;;
6392;SDS011;3229;42.674;23.282;2022-11-15T02:12:11;31.77;;;21.23;;
6392;SDS011;3229;42.674;23.282;2022-11-15T02:14:42;37.00;;;21.17;;
6392;SDS011;3229;42.674;23.282;2022-11-15T02:17:19;35.90;;;21.40;;
6392;SDS011;3229;42.674;23.282;2022-11-15T02:20:10;36.27;;;21.50;;
6392;SDS011;3229;42.674;23.282;2022-11-15T02:23:04;31.07;;;19.40;;
6392;SDS011;3229;42.674;23.282;2022-11-15T02:25:57;29.50;;;19.87;;
6392;SDS011;3229;42.674;23.282;2022-11-15T02:28:45;32.87;;;20.90;;
6392;SDS011;3229;42.674;23.282;2022-11-15T02:31:22;29.73;;;20.40;;
6392;SDS011;3229;42.674;23.282;2022-11-15T02:33:56;33.77;;;19.87;;
6392;SDS011;3229;42.674;23.282;2022-11-15T02:36:34;26.90;;;18.27;;
6392;SDS011;3229;42.674;23.282;2022-11-15T02:39:07;29.53;;;19.60;;
6392;SDS011;3229;42.674;23.282;2022-11-15T02:41:42;28.67;;;19.10;;
6392;SDS011;3229;42.674;23.282;2022-11-15T02:44:15;30.57;;;18.83;;
6392;SDS011;3229;42.674;23.282;2022-11-15T02:46:49;25.93;;;18.73;;
6392;SDS011;3229;42.674;23.282;2022-11-15T02:49:43;25.97;;;18.33;;
6392;SDS011;3229;42.674;23.282;2022-11-15T02:52:14;32.90;;;19.90;;
6392;SDS011;3229;42.674;23.282;2022-11-15T02:54:42;28.53;;;19.70;;
6392;SDS011;3229;42.674;23.282;2022-11-15T02:57:18;28.37;;;20.00;;
6392;SDS011;3229;42.674;23.282;2022-11-15T03:00:03;38.30;;;20.20;;
6392;SDS011;3229;42.674;23.282;2022-11-15T03:05:34;30.90;;;19.53;;
6392;SDS011;3229;42.674;23.282;2022-11-15T03:08:09;29.23;;;19.07;;
6392;SDS011;3229;42.674;23.282;2022-11-15T03:10:45;27.33;;;18.63;;
6392;SDS011;3229;42.674;23.282;2022-11-15T03:13:21;29.23;;;20.03;;
6392;SDS011;3229;42.674;23.282;2022-11-15T03:15:54;29.00;;;19.00;;
6392;SDS011;3229;42.674;23.282;2022-11-15T03:18:32;29.30;;;19.07;;
6392;SDS011;3229;42.674;23.282;2022-11-15T03:21:03;28.03;;;19.17;;
6392;SDS011;3229;42.674;23.282;2022-11-15T03:23:33;26.10;;;18.97;;
6392;SDS011;3229;42.674;23.282;2022-11-15T03:26:03;30.47;;;20.53;;
6392;SDS011;3229;42.674;23.282;2022-11-15T03:28:34;32.70;;;19.80;;
6392;SDS011;3229;42.674;23.282;2022-11-15T03:31:05;32.50;;;19.13;;
6392;SDS011;3229;42.674;23.282;2022-11-15T03:33:49;31.43;;;19.43;;
6392;SDS011;3229;42.674;23.282;2022-11-15T03:36:21;29.70;;;19.00;;
6392;SDS011;3229;42.674;23.282;2022-11-15T03:38:49;30.93;;;19.27;;
6392;SDS011;3229;42.674;23.282;2022-11-15T03:41:22;32.43;;;21.13;;
6392;SDS011;3229;42.674;23.282;2022-11-15T03:43:52;31.03;;;20.93;;
6392;SDS011;3229;42.674;23.282;2022-11-15T03:46:24;32.10;;;20.27;;
6392;SDS011;3229;42.674;23.282;2022-11-15T03:49:04;30.57;;;20.17;;
6392;SDS011;3229;42.674;23.282;2022-11-15T03:51:40;32.83;;;21.57;;
6392;SDS011;3229;42.674;23.282;2022-11-15T03:54:07;31.70;;;21.07;;
6392;SDS011;3229;42.674;23.282;2022-11-15T03:56:34;31.13;;;20.90;;
6392;SDS011;3229;42.674;23.282;2022-11-15T03:59:01;33.13;;;20.43;;
6392;SDS011;3229;42.674;23.282;2022-11-15T04:01:28;31.13;;;19.73;;
6392;SDS011;3229;42.674;23.282;2022-11-15T04:03:56;36.70;;;22.80;;
6392;SDS011;3229;42.674;23.282;2022-11-15T04:06:23;30.57;;;20.93;;
6392;SDS011;3229;42.674;23.282;2022-11-15T04:08:50;31.07;;;20.53;;
6392;SDS011;3229;42.674;23.282;2022-11-15T04:11:17;31.30;;;21.00;;
6392;SDS011;3229;42.674;23.282;2022-11-15T04:13:43;31.90;;;22.27;;
6392;SDS011;3229;42.674;23.282;2022-11-15T04:16:10;34.27;;;22.23;;
6392;SDS011;3229;42.674;23.282;2022-11-15T04:18:37;38.67;;;23.43;;
6392;SDS011;3229;42.674;23.282;2022-11-15T04:21:05;34.73;;;21.50;;
6392;SDS011;3229;42.674;23.282;2022-11-15T04:23:57;37.57;;;22.77;;
6392;SDS011;3229;42.674;23.282;2022-11-15T04:26:39;32.47;;;21.30;;
6392;SDS011;3229;42.674;23.282;2022-11-15T04:29:06;43.63;;;24.47;;
6392;SDS011;3229;42.674;23.282;2022-11-15T04:31:50;37.37;;;22.57;;
6392;SDS011;3229;42.674;23.282;2022-11-15T04:34:16;43.20;;;23.23;;
6392;SDS011;3229;42.674;23.282;2022-11-15T04:36:47;40.47;;;22.33;;
6392;SDS011;3229;42.674;23.282;2022-11-15T04:39:32;42.50;;;24.30;;
6392;SDS011;3229;42.674;23.282;2022-11-15T04:41:59;41.97;;;24.70;;
6392;SDS011;3229;42.674;23.282;2022-11-15T04:44:25;43.13;;;23.07;;
6392;SDS011;3229;42.674;23.282;2022-11-15T04:46:54;42.23;;;24.47;;
6392;SDS011;3229;42.674;23.282;2022-11-15T04:49:21;46.37;;;25.07;;
6392;SDS011;3229;42.674;23.282;2022-11-15T04:51:49;46.23;;;26.10;;
6392;SDS011;3229;42.674;23.282;2022-11-15T04:54:16;46.80;;;25.50;;
6392;SDS011;3229;42.674;23.282;2022-11-15T04:56:44;47.73;;;26.73;;
6392;SDS011;3229;42.674;23.282;2022-11-15T04:59:11;47.27;;;26.30;;
6392;SDS011;3229;42.674;23.282;2022-11-15T05:01:38;50.77;;;26.97;;
6392;SDS011;3229;42.674;23.282;2022-11-15T05:04:05;51.27;;;26.93;;
6392;SDS011;3229;42.674;23.282;2022-11-15T05:06:47;53.27;;;26.83;;
6392;SDS011;3229;42.674;23.282;2022-11-15T05:09:17;66.20;;;29.07;;
6392;SDS011;3229;42.674;23.282;2022-11-15T05:11:47;58.33;;;26.93;;
6392;SDS011;3229;42.674;23.282;2022-11-15T05:14:14;60.60;;;27.50;;
6392;SDS011;3229;42.674;23.282;2022-11-15T05:16:41;63.53;;;26.70;;
6392;SDS011;3229;42.674;23.282;2022-11-15T05:19:08;61.90;;;29.40;;
6392;SDS011;3229;42.674;23.282;2022-11-15T05:21:37;53.90;;;27.83;;
6392;SDS011;3229;42.674;23.282;2022-11-15T05:24:10;62.37;;;29.90;;
6392;SDS011;3229;42.674;23.282;2022-11-15T05:26:51;62.67;;;31.33;;
6392;SDS011;3229;42.674;23.282;2022-11-15T05:29:17;69.43;;;31.83;;
6392;SDS011;3229;42.674;23.282;2022-11-15T05:31:44;70.07;;;30.83;;
6392;SDS011;3229;42.674;23.282;2022-11-15T05:34:11;56.93;;;28.43;;
6392;SDS011;3229;42.674;23.282;2022-11-15T05:36:38;62.57;;;31.67;;
6392;SDS011;3229;42.674;23.282;2022-11-15T05:39:11;62.03;;;30.07;;
6392;SDS011;3229;42.674;23.282;2022-11-15T05:41:38;62.13;;;30.47;;
6392;SDS011;3229;42.674;23.282;2022-11-15T05:44:09;69.13;;;32.63;;
6392;SDS011;3229;42.674;23.282;2022-11-15T05:46:37;68.20;;;33.20;;
6392;SDS011;3229;42.674;23.282;2022-11-15T05:49:07;63.23;;;32.47;;
6392;SDS011;3229;42.674;23.282;2022-11-15T05:51:39;71.63;;;30.40;;
6392;SDS011;3229;42.674;23.282;2022-11-15T05:54:06;67.43;;;31.67;;
6392;SDS011;3229;42.674;23.282;2022-11-15T05:56:34;62.63;;;29.73;;
6392;SDS011;3229;42.674;23.282;2022-11-15T05:59:01;61.70;;;30.13;;
6392;SDS011;3229;42.674;23.282;2022-11-15T06:01:29;55.83;;;28.60;;
6392;SDS011;3229;42.674;23.282;2022-11-15T06:03:56;50.27;;;27.47;;
6392;SDS011;3229;42.674;23.282;2022-11-15T06:06:23;57.10;;;29.43;;
6392;SDS011;3229;42.674;23.282;2022-11-15T06:08:50;59.10;;;28.80;;
6392;SDS011;3229;42.674;23.282;2022-11-15T06:11:16;56.00;;;28.83;;
6392;SDS011;3229;42.674;23.282;2022-11-15T06:13:45;61.60;;;29.23;;
6392;SDS011;3229;42.674;23.282;2022-11-15T06:16:12;59.73;;;30.90;;
6392;SDS011;3229;42.674;23.282;2022-11-15T06:18:38;60.40;;;29.27;;
6392;SDS011;3229;42.674;23.282;2022-11-15T06:21:05;57.63;;;29.70;;
6392;SDS011;3229;42.674;23.282;2022-11-15T06:23:32;54.70;;;28.03;;
6392;SDS011;3229;42.674;23.282;2022-11-15T06:26:01;54.93;;;30.00;;
6392;SDS011;3229;42.674;23.282;2022-11-15T06:28:29;51.30;;;27.33;;
6392;SDS011;3229;42.674;23.282;2022-11-15T06:31:01;53.47;;;27.97;;
6392;SDS011;3229;42.674;23.282;2022-11-15T06:33:29;49.70;;;27.47;;
6392;SDS011;3229;42.674;23.282;2022-11-15T06:35:56;46.97;;;26.17;;
6392;SDS011;3229;42.674;23.282;2022-11-15T06:38:26;52.93;;;28.07;;
6392;SDS011;3229;42.674;23.282;2022-11-15T06:40:53;55.77;;;27.60;;
6392;SDS011;3229;42.674;23.282;2022-11-15T06:43:20;55.47;;;28.27;;
6392;SDS011;3229;42.674;23.282;2022-11-15T06:45:47;51.63;;;26.97;;
6392;SDS011;3229;42.674;23.282;2022-11-15T06:48:15;53.37;;;27.77;;
6392;SDS011;3229;42.674;23.282;2022-11-15T06:50:42;46.33;;;20.80;;
6392;SDS011;3229;42.674;23.282;2022-11-15T06:53:09;57.47;;;23.53;;
6392;SDS011;3229;42.674;23.282;2022-11-15T06:55:36;51.03;;;26.63;;
6392;SDS011;3229;42.674;23.282;2022-11-15T06:58:03;42.53;;;24.53;;
6392;SDS011;3229;42.674;23.282;2022-11-15T07:00:30;41.67;;;22.43;;
6392;SDS011;3229;42.674;23.282;2022-11-15T07:02:59;34.27;;;21.13;;
6392;SDS011;3229;42.674;23.282;2022-11-15T07:05:27;39.57;;;20.70;;
6392;SDS011;3229;42.674;23.282;2022-11-15T07:07:56;46.10;;;26.43;;
6392;SDS011;3229;42.674;23.282;2022-11-15T07:10:28;46.97;;;27.77;;
6392;SDS011;3229;42.674;23.282;2022-11-15T07:12:55;54.67;;;27.67;;
6392;SDS011;3229;42.674;23.282;2022-11-15T07:15:24;64.80;;;30.83;;
6392;SDS011;3229;42.674;23.282;2022-11-15T07:17:51;54.73;;;30.37;;
6392;SDS011;3229;42.674;23.282;2022-11-15T07:20:18;56.53;;;31.83;;
6392;SDS011;3229;42.674;23.282;2022-11-15T07:22:46;59.20;;;31.87;;
6392;SDS011;3229;42.674;23.282;2022-11-15T07:25:13;67.93;;;35.63;;
6392;SDS011;3229;42.674;23.282;2022-11-15T07:27:40;64.67;;;34.50;;
6392;SDS011;3229;42.674;23.282;2022-11-15T07:30:07;74.17;;;36.23;;
6392;SDS011;3229;42.674;23.282;2022-11-15T07:32:35;66.97;;;35.97;;
6392;SDS011;3229;42.674;23.282;2022-11-15T07:35:02;68.37;;;36.43;;
6392;SDS011;3229;42.674;23.282;2022-11-15T07:37:29;61.83;;;33.93;;
6392;SDS011;3229;42.674;23.282;2022-11-15T07:39:57;62.30;;;35.67;;
6392;SDS011;3229;42.674;23.282;2022-11-15T07:42:24;74.80;;;38.53;;
6392;SDS011;3229;42.674;23.282;2022-11-15T07:45:08;73.70;;;39.67;;
6392;SDS011;3229;42.674;23.282;2022-11-15T07:47:35;70.63;;;38.00;;
6392;SDS011;3229;42.674;23.282;2022-11-15T07:50:02;74.33;;;38.77;;
6392;SDS011;3229;42.674;23.282;2022-11-15T07:52:29;71.13;;;39.37;;
6392;SDS011;3229;42.674;23.282;2022-11-15T07:54:57;73.23;;;41.47;;
6392;SDS011;3229;42.674;23.282;2022-11-15T07:57:24;80.40;;;39.37;;
6392;SDS011;3229;42.674;23.282;2022-11-15T07:59:51;75.93;;;40.83;;
6392;SDS011;3229;42.674;23.282;2022-11-15T08:02:18;78.63;;;40.67;;
6392;SDS011;3229;42.674;23.282;2022-11-15T08:04:47;78.90;;;40.77;;
6392;SDS011;3229;42.674;23.282;2022-11-15T08:07:14;76.60;;;40.80;;
6392;SDS011;3229;42.674;23.282;2022-11-15T08:09:41;72.70;;;39.90;;
6392;SDS011;3229;42.674;23.282;2022-11-15T08:12:09;81.00;;;40.83;;
6392;SDS011;3229;42.674;23.282;2022-11-15T08:14:36;86.47;;;43.00;;
6392;SDS011;3229;42.674;23.282;2022-11-15T08:17:03;81.43;;;42.13;;
6392;SDS011;3229;42.674;23.282;2022-11-15T08:19:30;78.03;;;41.33;;
6392;SDS011;3229;42.674;23.282;2022-11-15T08:21:57;84.23;;;42.17;;
6392;SDS011;3229;42.674;23.282;2022-11-15T08:24:23;87.27;;;44.40;;
6392;SDS011;3229;42.674;23.282;2022-11-15T08:26:50;80.30;;;42.47;;
6392;SDS011;3229;42.674;23.282;2022-11-15T08:29:19;80.47;;;42.17;;
6392;SDS011;3229;42.674;23.282;2022-11-15T08:31:45;79.47;;;41.93;;
6392;SDS011;3229;42.674;23.282;2022-11-15T08:34:12;84.30;;;42.57;;
6392;SDS011;3229;42.674;23.282;2022-11-15T08:36:39;84.47;;;42.60;;
6392;SDS011;3229;42.674;23.282;2022-11-15T08:39:06;88.57;;;43.50;;
6392;SDS011;3229;42.674;23.282;2022-11-15T08:41:36;80.43;;;42.53;;
6392;SDS011;3229;42.674;23.282;2022-11-15T08:44:03;80.97;;;43.03;;
6392;SDS011;3229;42.674;23.282;2022-11-15T08:46:31;83.63;;;44.60;;
6392;SDS011;3229;42.674;23.282;2022-11-15T08:48:58;87.97;;;43.90;;
6392;SDS011;3229;42.674;23.282;2022-11-15T08:51:25;83.27;;;44.50;;
6392;SDS011;3229;42.674;23.282;2022-11-15T08:53:52;92.33;;;45.50;;
6392;SDS011;3229;42.674;23.282;2022-11-15T08:56:19;85.87;;;46.40;;
6392;SDS011;3229;42.674;23.282;2022-11-15T08:58:45;90.50;;;46.13;;
6392;SDS011;3229;42.674;23.282;2022-11-15T09:01:16;84.00;;;44.10;;
6392;SDS011;3229;42.674;23.282;2022-11-15T09:03:46;84.03;;;46.57;;
6392;SDS011;3229;42.674;23.282;2022-11-15T09:06:13;84.07;;;48.17;;
6392;SDS011;3229;42.674;23.282;2022-11-15T09:08:40;83.73;;;45.63;;
6392;SDS011;3229;42.674;23.282;2022-11-15T09:11:08;86.17;;;46.73;;
6392;SDS011;3229;42.674;23.282;2022-11-15T09:13:36;84.37;;;47.50;;
6392;SDS011;3229;42.674;23.282;2022-11-15T09:16:03;86.17;;;45.60;;
6392;SDS011;3229;42.674;23.282;2022-11-15T09:18:31;85.27;;;45.50;;
6392;SDS011;3229;42.674;23.282;2022-11-15T09:21:00;83.20;;;45.40;;
6392;SDS011;3229;42.674;23.282;2022-11-15T09:23:27;84.57;;;45.87;;
6392;SDS011;3229;42.674;23.282;2022-11-15T09:25:58;81.87;;;45.53;;
6392;SDS011;3229;42.674;23.282;2022-11-15T09:28:26;89.03;;;46.07;;
6392;SDS011;3229;42.674;23.282;2022-11-15T09:30:55;76.83;;;44.60;;
6392;SDS011;3229;42.674;23.282;2022-11-15T09:33:24;86.83;;;48.20;;
6392;SDS011;3229;42.674;23.282;2022-11-15T09:35:50;89.23;;;45.20;;
6392;SDS011;3229;42.674;23.282;2022-11-15T09:38:19;80.03;;;44.90;;
6392;SDS011;3229;42.674;23.282;2022-11-15T09:40:47;80.80;;;46.03;;
6392;SDS011;3229;42.674;23.282;2022-11-15T09:43:25;84.77;;;48.17;;
6392;SDS011;3229;42.674;23.282;2022-11-15T09:46:01;84.57;;;47.13;;
6392;SDS011;3229;42.674;23.282;2022-11-15T09:48:39;81.43;;;46.33;;
6392;SDS011;3229;42.674;23.282;2022-11-15T09:51:20;77.33;;;45.77;;
6392;SDS011;3229;42.674;23.282;2022-11-15T09:53:56;77.17;;;44.93;;
6392;SDS011;3229;42.674;23.282;2022-11-15T09:56:27;83.30;;;45.87;;
6392;SDS011;3229;42.674;23.282;2022-11-15T09:58:58;79.43;;;46.70;;
6392;SDS011;3229;42.674;23.282;2022-11-15T10:01:37;76.67;;;47.07;;
6392;SDS011;3229;42.674;23.282;2022-11-15T10:04:11;74.47;;;46.00;;
6392;SDS011;3229;42.674;23.282;2022-11-15T10:06:38;77.87;;;45.67;;
6392;SDS011;3229;42.674;23.282;2022-11-15T10:09:13;71.77;;;43.17;;
6392;SDS011;3229;42.674;23.282;2022-11-15T10:11:43;79.20;;;45.33;;
6392;SDS011;3229;42.674;23.282;2022-11-15T10:14:11;76.67;;;45.23;;
6392;SDS011;3229;42.674;23.282;2022-11-15T10:17:01;80.13;;;47.87;;
6392;SDS011;3229;42.674;23.282;2022-11-15T10:19:49;74.23;;;44.47;;
6392;SDS011;3229;42.674;23.282;2022-11-15T10:22:24;74.07;;;44.77;;
6392;SDS011;3229;42.674;23.282;2022-11-15T10:25:00;74.33;;;45.03;;
6392;SDS011;3229;42.674;23.282;2022-11-15T10:27:39;73.20;;;45.40;;
6392;SDS011;3229;42.674;23.282;2022-11-15T10:30:11;83.23;;;48.07;;
6392;SDS011;3229;42.674;23.282;2022-11-15T10:32:40;70.07;;;45.03;;
6392;SDS011;3229;42.674;23.282;2022-11-15T10:38:04;76.70;;;46.07;;
6392;SDS011;3229;42.674;23.282;2022-11-15T10:40:34;81.93;;;49.00;;
6392;SDS011;3229;42.674;23.282;2022-11-15T10:43:05;76.73;;;45.93;;
6392;SDS011;3229;42.674;23.282;2022-11-15T10:45:40;85.87;;;49.03;;
6392;SDS011;3229;42.674;23.282;2022-11-15T10:48:19;86.40;;;49.07;;
6392;SDS011;3229;42.674;23.282;2022-11-15T10:50:49;78.20;;;47.23;;
6392;SDS011;3229;42.674;23.282;2022-11-15T10:53:20;82.20;;;46.80;;
6392;SDS011;3229;42.674;23.282;2022-11-15T10:55:52;81.90;;;47.87;;
6392;SDS011;3229;42.674;23.282;2022-11-15T10:58:26;74.70;;;46.67;;
6392;SDS011;3229;42.674;23.282;2022-11-15T11:01:14;75.40;;;46.57;;
6392;SDS011;3229;42.674;23.282;2022-11-15T11:03:43;73.63;;;45.77;;
6392;SDS011;3229;42.674;23.282;2022-11-15T11:06:12;78.87;;;46.43;;
6392;SDS011;3229;42.674;23.282;2022-11-15T11:08:40;75.57;;;44.73;;
6392;SDS011;3229;42.674;23.282;2022-11-15T11:11:20;79.73;;;46.50;;
6392;SDS011;3229;42.674;23.282;2022-11-15T11:13:47;74.73;;;44.40;;
6392;SDS011;3229;42.674;23.282;2022-11-15T11:16:18;70.20;;;43.63;;
6392;SDS011;3229;42.674;23.282;2022-11-15T11:18:54;69.90;;;45.23;;
6392;SDS011;3229;42.674;23.282;2022-11-15T11:21:31;70.77;;;44.10;;
6392;SDS011;3229;42.674;23.282;2022-11-15T11:24:08;63.87;;;43.60;;
6392;SDS011;3229;42.674;23.282;2022-11-15T11:26:48;71.40;;;42.90;;
6392;SDS011;3229;42.674;23.282;2022-11-15T11:29:27;67.80;;;41.83;;
6392;SDS011;3229;42.674;23.282;2022-11-15T11:32:07;70.17;;;42.17;;
6392;SDS011;3229;42.674;23.282;2022-11-15T11:34:47;67.47;;;42.17;;
6392;SDS011;3229;42.674;23.282;2022-11-15T11:37:24;65.47;;;41.83;;
6392;SDS011;3229;42.674;23.282;2022-11-15T11:40:04;66.73;;;41.67;;
6392;SDS011;3229;42.674;23.282;2022-11-15T11:42:47;69.93;;;41.97;;
6392;SDS011;3229;42.674;23.282;2022-11-15T11:45:26;75.67;;;42.37;;
6392;SDS011;3229;42.674;23.282;2022-11-15T11:48:10;69.03;;;43.13;;
6392;SDS011;3229;42.674;23.282;2022-11-15T11:50:39;62.03;;;39.33;;
6392;SDS011;3229;42.674;23.282;2022-11-15T11:53:11;68.30;;;43.70;;
6392;SDS011;3229;42.674;23.282;2022-11-15T11:55:42;62.67;;;41.17;;
6392;SDS011;3229;42.674;23.282;2022-11-15T11:58:14;61.07;;;39.60;;
6392;SDS011;3229;42.674;23.282;2022-11-15T12:00:49;62.07;;;41.77;;
6392;SDS011;3229;42.674;23.282;2022-11-15T12:03:19;70.57;;;45.10;;
6392;SDS011;3229;42.674;23.282;2022-11-15T12:05:56;68.43;;;42.47;;
6392;SDS011;3229;42.674;23.282;2022-11-15T12:08:29;63.23;;;41.93;;
6392;SDS011;3229;42.674;23.282;2022-11-15T12:11:06;67.70;;;43.47;;
6392;SDS011;3229;42.674;23.282;2022-11-15T12:13:39;66.67;;;41.17;;
6392;SDS011;3229;42.674;23.282;2022-11-15T12:16:11;65.20;;;42.10;;
6392;SDS011;3229;42.674;23.282;2022-11-15T12:18:44;62.47;;;42.87;;
6392;SDS011;3229;42.674;23.282;2022-11-15T12:21:15;68.93;;;43.60;;
6392;SDS011;3229;42.674;23.282;2022-11-15T12:23:47;64.07;;;42.63;;
6392;SDS011;3229;42.674;23.282;2022-11-15T12:26:18;62.10;;;42.80;;
6392;SDS011;3229;42.674;23.282;2022-11-15T12:28:52;64.77;;;42.80;;
6392;SDS011;3229;42.674;23.282;2022-11-15T12:31:24;71.23;;;42.97;;
6392;SDS011;3229;42.674;23.282;2022-11-15T12:33:58;70.57;;;43.57;;
6392;SDS011;3229;42.674;23.282;2022-11-15T12:36:32;67.83;;;43.60;;
6392;SDS011;3229;42.674;23.282;2022-11-15T12:39:03;68.27;;;43.73;;
6392;SDS011;3229;42.674;23.282;2022-11-15T12:41:31;65.03;;;42.63;;
6392;SDS011;3229;42.674;23.282;2022-11-15T12:44:01;68.60;;;40.87;;
6392;SDS011;3229;42.674;23.282;2022-11-15T12:49:42;61.33;;;41.73;;
6392;SDS011;3229;42.674;23.282;2022-11-15T12:52:11;66.10;;;42.23;;
6392;SDS011;3229;42.674;23.282;2022-11-15T12:54:54;59.63;;;40.77;;
6392;SDS011;3229;42.674;23.282;2022-11-15T12:57:42;61.67;;;41.53;;
6392;SDS011;3229;42.674;23.282;2022-11-15T13:03:17;63.40;;;41.00;;
6392;SDS011;3229;42.674;23.282;2022-11-15T13:06:04;69.97;;;44.60;;
6392;SDS011;3229;42.674;23.282;2022-11-15T13:08:40;64.33;;;42.53;;
6392;SDS011;3229;42.674;23.282;2022-11-15T13:14:44;60.30;;;40.43;;
6392;SDS011;3229;42.674;23.282;2022-11-15T13:17:30;63.83;;;41.93;;
6392;SDS011;3229;42.674;23.282;2022-11-15T13:20:00;64.47;;;42.47;;
6392;SDS011;3229;42.674;23.282;2022-11-15T13:22:46;67.67;;;41.60;;
6392;SDS011;3229;42.674;23.282;2022-11-15T13:28:22;68.30;;;41.77;;
6392;SDS011;3229;42.674;23.282;2022-11-15T13:30:56;55.83;;;38.83;;
6392;SDS011;3229;42.674;23.282;2022-11-15T13:33:28;64.40;;;40.40;;
6392;SDS011;3229;42.674;23.282;2022-11-15T13:35:58;60.40;;;39.37;;
6392;SDS011;3229;42.674;23.282;2022-11-15T13:38:28;65.13;;;40.80;;
6392;SDS011;3229;42.674;23.282;2022-11-15T13:40:56;57.77;;;39.67;;
6392;SDS011;3229;42.674;23.282;2022-11-15T13:43:29;64.97;;;40.33;;
6392;SDS011;3229;42.674;23.282;2022-11-15T13:46:07;60.17;;;39.77;;
6392;SDS011;3229;42.674;23.282;2022-11-15T13:48:41;56.20;;;37.83;;
6392;SDS011;3229;42.674;23.282;2022-11-15T13:51:12;63.07;;;38.87;;
6392;SDS011;3229;42.674;23.282;2022-11-15T13:53:45;60.47;;;40.20;;
6392;SDS011;3229;42.674;23.282;2022-11-15T13:56:15;57.97;;;39.03;;
6392;SDS011;3229;42.674;23.282;2022-11-15T13:58:43;66.37;;;41.30;;
6392;SDS011;3229;42.674;23.282;2022-11-15T14:01:14;59.43;;;40.53;;
6392;SDS011;3229;42.674;23.282;2022-11-15T14:03:50;62.50;;;39.20;;
6392;SDS011;3229;42.674;23.282;2022-11-15T14:06:20;63.07;;;40.83;;
6392;SDS011;3229;42.674;23.282;2022-11-15T14:14:50;58.83;;;39.23;;
6392;SDS011;3229;42.674;23.282;2022-11-15T14:17:19;56.77;;;39.10;;
6392;SDS011;3229;42.674;23.282;2022-11-15T14:19:50;64.23;;;42.37;;
6392;SDS011;3229;42.674;23.282;2022-11-15T14:22:18;59.10;;;39.50;;
6392;SDS011;3229;42.674;23.282;2022-11-15T14:24:50;57.53;;;39.57;;
6392;SDS011;3229;42.674;23.282;2022-11-15T14:27:39;56.67;;;37.33;;
6392;SDS011;3229;42.674;23.282;2022-11-15T14:30:07;59.80;;;40.07;;
6392;SDS011;3229;42.674;23.282;2022-11-15T14:32:41;62.47;;;40.07;;
6392;SDS011;3229;42.674;23.282;2022-11-15T14:35:14;64.10;;;40.87;;
6392;SDS011;3229;42.674;23.282;2022-11-15T14:37:42;61.43;;;40.30;;
6392;SDS011;3229;42.674;23.282;2022-11-15T14:40:12;60.63;;;41.93;;
6392;SDS011;3229;42.674;23.282;2022-11-15T14:42:40;63.47;;;41.83;;
6392;SDS011;3229;42.674;23.282;2022-11-15T14:45:09;64.20;;;42.70;;
6392;SDS011;3229;42.674;23.282;2022-11-15T14:47:39;67.13;;;42.80;;
6392;SDS011;3229;42.674;23.282;2022-11-15T14:50:10;73.57;;;44.87;;
6392;SDS011;3229;42.674;23.282;2022-11-15T14:52:39;61.67;;;42.20;;
6392;SDS011;3229;42.674;23.282;2022-11-15T14:55:13;67.80;;;44.30;;
6392;SDS011;3229;42.674;23.282;2022-11-15T14:57:47;69.83;;;43.77;;
6392;SDS011;3229;42.674;23.282;2022-11-15T15:00:14;70.23;;;44.23;;
6392;SDS011;3229;42.674;23.282;2022-11-15T15:02:42;64.17;;;42.17;;
6392;SDS011;3229;42.674;23.282;2022-11-15T15:05:14;66.97;;;43.47;;
6392;SDS011;3229;42.674;23.282;2022-11-15T15:07:43;71.50;;;44.97;;
6392;SDS011;3229;42.674;23.282;2022-11-15T15:10:11;70.40;;;44.50;;
6392;SDS011;3229;42.674;23.282;2022-11-15T15:12:38;71.90;;;45.17;;
6392;SDS011;3229;42.674;23.282;2022-11-15T15:15:06;71.10;;;44.90;;
6392;SDS011;3229;42.674;23.282;2022-11-15T15:17:37;71.93;;;46.17;;
6392;SDS011;3229;42.674;23.282;2022-11-15T15:20:04;73.27;;;46.07;;